Buoy 41991

sailwx.info

Track history (hours):
 
Tides and Currents Weather Stations Pressure Air Temp Water Temp Dewpoint Dewpoint Depression Visibility Wind Speed Wind Dir Waves Ship Positions

Drifting buoy 41991

Last reported at 2017-Jun-26 00:06 UTC. Time now 2017-Jun-26 00:35 UTC.
Position N 31°49' W 064°25'.

Water temperature 27.1 ° C

Date/timePositionNaut miles runAvg speedWind from/ knotsBaromVisibWave heightAir tempDewpointWater temp
2017-Jun-26 00:06N 31°49' W 064°25'1 2.4 27.1
2017-Jun-25 23:51N 31°49' W 064°25'0 0.0 27.2
2017-Jun-25 23:46N 31°49' W 064°25'0 0.0 27.2
2017-Jun-25 22:06N 31°49' W 064°25'0 0.0 27.3
2017-Jun-25 22:01N 31°49' W 064°25'1 7.6 27.3
2017-Jun-25 21:57N 31°49' W 064°25'1 0.4 27.3
2017-Jun-25 18:46N 31°50' W 064°26'2 0.9 27.5
2017-Jun-25 17:01N 31°49' W 064°28'1 0.4 27.1
2017-Jun-25 14:47N 31°49' W 064°29'0 0.0 26.6
2017-Jun-25 14:05N 31°49' W 064°29'0 0.0 26.5
2017-Jun-25 13:59N 31°49' W 064°29'1 0.3 26.5
2017-Jun-25 11:51N 31°48' W 064°29'0 0.0 26.4
2017-Jun-25 11:49N 31°48' W 064°29'0 0.0 26.4
2017-Jun-25 10:59N 31°48' W 064°29'1 0.8 26.4
2017-Jun-25 10:11N 31°47' W 064°29'0 0.0 26.4
2017-Jun-25 09:03N 31°47' W 064°29'1 5.2 26.5
2017-Jun-25 08:54N 31°47' W 064°28'1 0.2 26.5
2017-Jun-25 00:51N 31°48' W 064°28'0 0.0 26.6
2017-Jun-25 00:46N 31°48' W 064°28'0 0.0 26.6
2017-Jun-24 23:52N 31°48' W 064°28'1 0.4 26.7
2017-Jun-24 20:56N 31°49' W 064°29'1 0.4 26.8
2017-Jun-24 18:58N 31°49' W 064°29'0 0.0 27.0
2017-Jun-24 18:51N 31°49' W 064°29'135.5
2017-Jun-24 18:49N 31°49' W 064°31'1 0.3 27.0
2017-Jun-24 15:10N 31°48' W 064°32'0 0.0 26.7
2017-Jun-24 12:59N 31°48' W 064°32'0 0.0 26.7
2017-Jun-24 12:45N 31°48' W 064°32'1 0.3 26.7
2017-Jun-24 10:56N 31°48' W 064°31'0 0.0 26.6
2017-Jun-24 10:49N 31°48' W 064°31'1 1.2 26.6
2017-Jun-24 09:45N 31°47' W 064°32'0 0.0 26.6
2017-Jun-24 09:13N 31°47' W 064°32'1 7.7 26.6
2017-Jun-24 09:09N 31°47' W 064°31'110.2 26.6
2017-Jun-24 09:06N 31°47' W 064°32'1 6.7 26.6
2017-Jun-24 08:59N 31°47' W 064°31'1 0.1 26.6
2017-Jun-24 02:00N 31°48' W 064°32'1 9.0 26.7
2017-Jun-24 01:56N 31°49' W 064°32'1 0.4 26.7
2017-Jun-24 00:04N 31°48' W 064°32'1 0.4 26.7
2017-Jun-23 21:52N 31°49' W 064°33'0 0.0 26.9
2017-Jun-23 20:46N 31°49' W 064°33'1 0.7 26.9
2017-Jun-23 19:06N 31°49' W 064°34'0 0.0 26.9
2017-Jun-23 19:02N 31°49' W 064°34'147.2
2017-Jun-23 19:01N 31°50' W 064°34'2 0.4 26.9
2017-Jun-23 13:52N 31°50' W 064°36'1 0.7 26.7
2017-Jun-23 13:00N 31°51' W 064°36'0 0.0 26.6
2017-Jun-23 12:46N 31°51' W 064°36'1 0.5 26.6
2017-Jun-23 11:49N 31°51' W 064°37'0 0.0 26.6
2017-Jun-23 11:04N 31°51' W 064°37'0 0.0 26.6
2017-Jun-23 10:57N 31°51' W 064°37'0 0.0 26.6
2017-Jun-23 10:06N 31°51' W 064°37'1 0.3 26.6
2017-Jun-23 07:45N 31°52' W 064°37'1 0.2 26.6
2017-Jun-23 03:03N 31°52' W 064°37'1 0.4 26.6
2017-Jun-23 00:01N 31°53' W 064°37'0 0.0 26.7
2017-Jun-22 23:45N 31°53' W 064°37'1 0.4 26.8
2017-Jun-22 21:51N 31°54' W 064°38'1 1.3 27.0
2017-Jun-22 20:52N 31°55' W 064°38'2 0.3 27.0
2017-Jun-22 15:51N 31°56' W 064°40'0 0.0 26.7
2017-Jun-22 14:07N 31°56' W 064°40'1 0.4 26.6
2017-Jun-22 12:58N 31°56' W 064°40'1 6.0 26.6
2017-Jun-22 12:52N 31°57' W 064°40'118.0 26.6
2017-Jun-22 12:50N 31°56' W 064°40'1 0.2 26.6
2017-Jun-22 10:05N 31°56' W 064°41'0 0.0 26.6
2017-Jun-22 10:01N 31°56' W 064°41'1 0.3 26.6
2017-Jun-22 07:58N 31°56' W 064°41'1 6.7 26.5
2017-Jun-22 07:51N 31°56' W 064°40'1 0.1 26.5
2017-Jun-22 00:57N 31°57' W 064°40'1 0.7 26.7
2017-Jun-21 23:48N 31°58' W 064°41'1 0.8 26.8
2017-Jun-21 22:52N 31°57' W 064°41'1 6.7
2017-Jun-21 22:45N 31°58' W 064°41'1 0.8 26.9
2017-Jun-21 22:06N 31°58' W 064°41'1 0.3 27.0
2017-Jun-21 17:51N 31°58' W 064°43'1 0.4 27.0
2017-Jun-21 16:11N 31°58' W 064°43'1 0.2 26.9
2017-Jun-21 13:47N 31°58' W 064°43'1 1.1 26.6
2017-Jun-21 13:04N 31°57' W 064°44'0 0.0 26.5
2017-Jun-21 12:51N 31°57' W 064°44'0 0.0 26.4
2017-Jun-21 09:46N 31°57' W 064°44'0 0.0 26.2
2017-Jun-21 08:54N 31°57' W 064°44'0 0.0 26.2
2017-Jun-21 08:51N 31°57' W 064°44'1 1.0 26.2
2017-Jun-21 08:02N 31°58' W 064°43'0 0.0 26.2
2017-Jun-21 07:59N 31°58' W 064°43'1 0.2 26.2
2017-Jun-21 02:59N 31°58' W 064°44'1 0.3 26.4
2017-Jun-20 23:00N 31°58' W 064°45'1 0.5 26.6
2017-Jun-20 21:49N 31°59' W 064°45'2 0.5 26.7
2017-Jun-20 17:52N 31°57' W 064°46'0 0.0 26.2
2017-Jun-20 15:47N 31°57' W 064°46'1 0.6 26.2
2017-Jun-20 14:52N 31°57' W 064°45'0 0.0 26.1
2017-Jun-20 14:05N 31°57' W 064°45'0 0.0
2017-Jun-20 14:02N 31°57' W 064°45'0 0.0 25.9
2017-Jun-20 12:58N 31°57' W 064°45'1 0.3 25.8
2017-Jun-20 11:05N 31°57' W 064°44'118.0 25.7
2017-Jun-20 11:03N 31°58' W 064°44'1 0.5 25.7
2017-Jun-20 09:52N 31°57' W 064°44'0 0.0
2017-Jun-20 09:45N 31°57' W 064°44'1 0.5 25.6
2017-Jun-20 08:10N 31°58' W 064°44'0 0.0 25.6
2017-Jun-20 00:50N 31°58' W 064°44'0 0.0 25.8
2017-Jun-20 00:45N 31°58' W 064°44'0 0.0 25.8
2017-Jun-20 00:05N 31°58' W 064°44'0 0.0 25.8
2017-Jun-20 00:02N 31°58' W 064°44'0 0.0 25.8
2017-Jun-19 23:56N 31°58' W 064°44'0 0.0 25.8
2017-Jun-19 23:05N 31°58' W 064°44'2 0.7 25.9
2017-Jun-19 19:45N 31°56' W 064°42'2 1.3 25.9
2017-Jun-19 18:05N 31°55' W 064°40'1 0.2 25.7
2017-Jun-19 14:29N 31°55' W 064°39'1 0.6 25.5
2017-Jun-19 12:48N 31°55' W 064°38'1 0.5 25.4
2017-Jun-19 11:51N 31°55' W 064°38'0 0.0 25.4
2017-Jun-19 11:49N 31°55' W 064°38'0 0.0 25.4
2017-Jun-19 11:47N 31°55' W 064°38'1 0.6 25.4
2017-Jun-19 10:05N 31°55' W 064°37'0 0.0 25.4
2017-Jun-19 09:55N 31°55' W 064°37'1 0.2 25.4
2017-Jun-19 06:47N 31°55' W 064°37'2 0.5 25.4
2017-Jun-19 02:47N 31°53' W 064°37'1 0.4 25.7
2017-Jun-19 01:05N 31°53' W 064°37'1 0.6 25.7
2017-Jun-18 22:51N 31°52' W 064°36'1 0.7 25.9
2017-Jun-18 21:45N 31°51' W 064°37'2 1.0 25.9
2017-Jun-18 20:05N 31°50' W 064°35'0 0.0 25.9
2017-Jun-18 20:02N 31°50' W 064°35'0 0.0 25.9
2017-Jun-18 19:57N 31°50' W 064°35'2 0.3 25.9
2017-Jun-18 14:50N 31°50' W 064°33'0 0.0 25.6
2017-Jun-18 14:46N 31°50' W 064°33'1 0.6 25.6
2017-Jun-18 13:56N 31°50' W 064°34'1 0.7 25.6
2017-Jun-18 13:01N 31°51' W 064°34'1 0.8 25.5
2017-Jun-18 12:13N 31°50' W 064°34'0 0.0 25.5
2017-Jun-18 12:06N 31°50' W 064°34'0 0.0 25.5
2017-Jun-18 12:02N 31°50' W 064°34'110.1 25.5
2017-Jun-18 11:55N 31°50' W 064°35'4 0.7 25.5
2017-Jun-18 06:57N 31°46' W 064°35'1 0.1 25.7
2017-Jun-18 00:50N 31°46' W 064°35'1 0.6 26.0
2017-Jun-17 23:51N 31°45' W 064°35'115.3 25.9
2017-Jun-17 23:49N 31°45' W 064°35'1 0.7 26.0
2017-Jun-17 21:59N 31°44' W 064°35'1 4.4 26.1
2017-Jun-17 21:52N 31°44' W 064°35'1 0.4 26.2
2017-Jun-17 20:10N 31°43' W 064°35'1 0.2 26.4
2017-Jun-17 15:55N 31°43' W 064°35'0 0.0 26.2
2017-Jun-17 15:12N 31°43' W 064°35'1 6.8 26.1
2017-Jun-17 15:05N 31°43' W 064°35'123.6 26.1
2017-Jun-17 15:03N 31°43' W 064°35'1 0.3 26.1
2017-Jun-17 10:59N 31°42' W 064°37'2 0.5 25.7
2017-Jun-17 07:11N 31°41' W 064°38'218.7 25.9
2017-Jun-17 07:05N 31°39' W 064°38'0 0.0 25.9
2017-Jun-17 02:48N 31°39' W 064°38'0 0.0 26.3
2017-Jun-17 02:45N 31°39' W 064°38'1 0.6 26.3
2017-Jun-17 01:46N 31°40' W 064°38'1 0.7 26.5
2017-Jun-17 01:01N 31°40' W 064°37'0 0.0 26.7
2017-Jun-16 23:52N 31°40' W 064°37'0 0.0 27.2
2017-Jun-16 23:47N 31°40' W 064°37'1 0.8 27.2
2017-Jun-16 22:05N 31°41' W 064°38'111.8 28.2
2017-Jun-16 22:01N 31°41' W 064°38'1 0.3 28.2
2017-Jun-16 18:49N 31°41' W 064°40'0 0.0 28.8
2017-Jun-16 18:45N 31°41' W 064°40'2 0.5 28.8
2017-Jun-16 13:51N 31°43' W 064°42'0 0.0
2017-Jun-16 13:49N 31°43' W 064°42'1 1.2 25.7
2017-Jun-16 12:50N 31°43' W 064°43'1 0.6 25.5
2017-Jun-16 10:49N 31°43' W 064°44'1 1.1 25.4
2017-Jun-16 09:52N 31°43' W 064°46'1 9.5 25.4
2017-Jun-16 09:47N 31°43' W 064°46'0 0.0 25.4
2017-Jun-16 09:06N 31°43' W 064°46'0 0.0 25.3
2017-Jun-16 09:00N 31°43' W 064°46'110.2 25.3
2017-Jun-16 08:57N 31°43' W 064°47'3 0.4 25.3
2017-Jun-16 03:04N 31°43' W 064°50'   25.4
Track history (hours):
 
Tides and Currents Weather Stations Pressure Air Temp Water Temp Dewpoint Dewpoint Depression Visibility Wind Speed Wind Dir Waves Ship Positions

Drifting buoy 41991

Last reported at 2017-Jun-26 00:06 UTC. Time now 2017-Jun-26 00:35 UTC.
Position N 31°49' W 064°25'.

Water temperature 27.1 ° C

Date/timePositionNaut miles runAvg speedWind from/ knotsBaromVisibWave heightAir tempDewpointWater temp
2017-Jun-26 00:06N 31°49' W 064°25'1 2.4 27.1
2017-Jun-25 23:51N 31°49' W 064°25'0 0.0 27.2
2017-Jun-25 23:46N 31°49' W 064°25'0 0.0 27.2
2017-Jun-25 22:06N 31°49' W 064°25'0 0.0 27.3
2017-Jun-25 22:01N 31°49' W 064°25'1 7.6 27.3
2017-Jun-25 21:57N 31°49' W 064°25'1 0.4 27.3
2017-Jun-25 18:46N 31°50' W 064°26'2 0.9 27.5
2017-Jun-25 17:01N 31°49' W 064°28'1 0.4 27.1
2017-Jun-25 14:47N 31°49' W 064°29'0 0.0 26.6
2017-Jun-25 14:05N 31°49' W 064°29'0 0.0 26.5
2017-Jun-25 13:59N 31°49' W 064°29'1 0.3 26.5
2017-Jun-25 11:51N 31°48' W 064°29'0 0.0 26.4
2017-Jun-25 11:49N 31°48' W 064°29'0 0.0 26.4
2017-Jun-25 10:59N 31°48' W 064°29'1 0.8 26.4
2017-Jun-25 10:11N 31°47' W 064°29'0 0.0 26.4
2017-Jun-25 09:03N 31°47' W 064°29'1 5.2 26.5
2017-Jun-25 08:54N 31°47' W 064°28'1 0.2 26.5
2017-Jun-25 00:51N 31°48' W 064°28'0 0.0 26.6
2017-Jun-25 00:46N 31°48' W 064°28'0 0.0 26.6
2017-Jun-24 23:52N 31°48' W 064°28'1 0.4 26.7
2017-Jun-24 20:56N 31°49' W 064°29'1 0.4 26.8
2017-Jun-24 18:58N 31°49' W 064°29'0 0.0 27.0
2017-Jun-24 18:51N 31°49' W 064°29'135.5
2017-Jun-24 18:49N 31°49' W 064°31'1 0.3 27.0
2017-Jun-24 15:10N 31°48' W 064°32'0 0.0 26.7
2017-Jun-24 12:59N 31°48' W 064°32'0 0.0 26.7
2017-Jun-24 12:45N 31°48' W 064°32'1 0.3 26.7
2017-Jun-24 10:56N 31°48' W 064°31'0 0.0 26.6
2017-Jun-24 10:49N 31°48' W 064°31'1 1.2 26.6
2017-Jun-24 09:45N 31°47' W 064°32'0 0.0 26.6
2017-Jun-24 09:13N 31°47' W 064°32'1 7.7 26.6
2017-Jun-24 09:09N 31°47' W 064°31'110.2 26.6
2017-Jun-24 09:06N 31°47' W 064°32'1 6.7 26.6
2017-Jun-24 08:59N 31°47' W 064°31'1 0.1 26.6
2017-Jun-24 02:00N 31°48' W 064°32'1 9.0 26.7
2017-Jun-24 01:56N 31°49' W 064°32'1 0.4 26.7
2017-Jun-24 00:04N 31°48' W 064°32'1 0.4 26.7
2017-Jun-23 21:52N 31°49' W 064°33'0 0.0 26.9
2017-Jun-23 20:46N 31°49' W 064°33'1 0.7 26.9
2017-Jun-23 19:06N 31°49' W 064°34'0 0.0 26.9
2017-Jun-23 19:02N 31°49' W 064°34'147.2
2017-Jun-23 19:01N 31°50' W 064°34'2 0.4 26.9
2017-Jun-23 13:52N 31°50' W 064°36'1 0.7 26.7
2017-Jun-23 13:00N 31°51' W 064°36'0 0.0 26.6
2017-Jun-23 12:46N 31°51' W 064°36'1 0.5 26.6
2017-Jun-23 11:49N 31°51' W 064°37'0 0.0 26.6
2017-Jun-23 11:04N 31°51' W 064°37'0 0.0 26.6
2017-Jun-23 10:57N 31°51' W 064°37'0 0.0 26.6
2017-Jun-23 10:06N 31°51' W 064°37'1 0.3 26.6
2017-Jun-23 07:45N 31°52' W 064°37'1 0.2 26.6
2017-Jun-23 03:03N 31°52' W 064°37'1 0.4 26.6
2017-Jun-23 00:01N 31°53' W 064°37'0 0.0 26.7
2017-Jun-22 23:45N 31°53' W 064°37'1 0.4 26.8
2017-Jun-22 21:51N 31°54' W 064°38'1 1.3 27.0
2017-Jun-22 20:52N 31°55' W 064°38'2 0.3 27.0
2017-Jun-22 15:51N 31°56' W 064°40'0 0.0 26.7
2017-Jun-22 14:07N 31°56' W 064°40'1 0.4 26.6
2017-Jun-22 12:58N 31°56' W 064°40'1 6.0 26.6
2017-Jun-22 12:52N 31°57' W 064°40'118.0 26.6
2017-Jun-22 12:50N 31°56' W 064°40'1 0.2 26.6
2017-Jun-22 10:05N 31°56' W 064°41'0 0.0 26.6
2017-Jun-22 10:01N 31°56' W 064°41'1 0.3 26.6
2017-Jun-22 07:58N 31°56' W 064°41'1 6.7 26.5
2017-Jun-22 07:51N 31°56' W 064°40'1 0.1 26.5
2017-Jun-22 00:57N 31°57' W 064°40'1 0.7 26.7
2017-Jun-21 23:48N 31°58' W 064°41'1 0.8 26.8
2017-Jun-21 22:52N 31°57' W 064°41'1 6.7
2017-Jun-21 22:45N 31°58' W 064°41'1 0.8 26.9
2017-Jun-21 22:06N 31°58' W 064°41'1 0.3 27.0
2017-Jun-21 17:51N 31°58' W 064°43'1 0.4 27.0
2017-Jun-21 16:11N 31°58' W 064°43'1 0.2 26.9
2017-Jun-21 13:47N 31°58' W 064°43'1 1.1 26.6
2017-Jun-21 13:04N 31°57' W 064°44'0 0.0 26.5
2017-Jun-21 12:51N 31°57' W 064°44'0 0.0 26.4
2017-Jun-21 09:46N 31°57' W 064°44'0 0.0 26.2
2017-Jun-21 08:54N 31°57' W 064°44'0 0.0 26.2
2017-Jun-21 08:51N 31°57' W 064°44'1 1.0 26.2
2017-Jun-21 08:02N 31°58' W 064°43'0 0.0 26.2
2017-Jun-21 07:59N 31°58' W 064°43'1 0.2 26.2
2017-Jun-21 02:59N 31°58' W 064°44'1 0.3 26.4
2017-Jun-20 23:00N 31°58' W 064°45'1 0.5 26.6
2017-Jun-20 21:49N 31°59' W 064°45'2 0.5 26.7
2017-Jun-20 17:52N 31°57' W 064°46'0 0.0 26.2
2017-Jun-20 15:47N 31°57' W 064°46'1 0.6 26.2
2017-Jun-20 14:52N 31°57' W 064°45'0 0.0 26.1
2017-Jun-20 14:05N 31°57' W 064°45'0 0.0
2017-Jun-20 14:02N 31°57' W 064°45'0 0.0 25.9
2017-Jun-20 12:58N 31°57' W 064°45'1 0.3 25.8
2017-Jun-20 11:05N 31°57' W 064°44'118.0 25.7
2017-Jun-20 11:03N 31°58' W 064°44'1 0.5 25.7
2017-Jun-20 09:52N 31°57' W 064°44'0 0.0
2017-Jun-20 09:45N 31°57' W 064°44'1 0.5 25.6
2017-Jun-20 08:10N 31°58' W 064°44'0 0.0 25.6
2017-Jun-20 00:50N 31°58' W 064°44'0 0.0 25.8
2017-Jun-20 00:45N 31°58' W 064°44'0 0.0 25.8
2017-Jun-20 00:05N 31°58' W 064°44'0 0.0 25.8
2017-Jun-20 00:02N 31°58' W 064°44'0 0.0 25.8
2017-Jun-19 23:56N 31°58' W 064°44'0 0.0 25.8
2017-Jun-19 23:05N 31°58' W 064°44'2 0.7 25.9
2017-Jun-19 19:45N 31°56' W 064°42'2 1.3 25.9
2017-Jun-19 18:05N 31°55' W 064°40'1 0.2 25.7
2017-Jun-19 14:29N 31°55' W 064°39'1 0.6 25.5
2017-Jun-19 12:48N 31°55' W 064°38'1 0.5 25.4
2017-Jun-19 11:51N 31°55' W 064°38'0 0.0 25.4
2017-Jun-19 11:49N 31°55' W 064°38'0 0.0 25.4
2017-Jun-19 11:47N 31°55' W 064°38'1 0.6 25.4
2017-Jun-19 10:05N 31°55' W 064°37'0 0.0 25.4
2017-Jun-19 09:55N 31°55' W 064°37'1 0.2 25.4
2017-Jun-19 06:47N 31°55' W 064°37'2 0.5 25.4
2017-Jun-19 02:47N 31°53' W 064°37'1 0.4 25.7
2017-Jun-19 01:05N 31°53' W 064°37'1 0.6 25.7
2017-Jun-18 22:51N 31°52' W 064°36'1 0.7 25.9
2017-Jun-18 21:45N 31°51' W 064°37'2 1.0 25.9
2017-Jun-18 20:05N 31°50' W 064°35'0 0.0 25.9
2017-Jun-18 20:02N 31°50' W 064°35'0 0.0 25.9
2017-Jun-18 19:57N 31°50' W 064°35'2 0.3 25.9
2017-Jun-18 14:50N 31°50' W 064°33'0 0.0 25.6
2017-Jun-18 14:46N 31°50' W 064°33'1 0.6 25.6
2017-Jun-18 13:56N 31°50' W 064°34'1 0.7 25.6
2017-Jun-18 13:01N 31°51' W 064°34'1 0.8 25.5
2017-Jun-18 12:13N 31°50' W 064°34'0 0.0 25.5
2017-Jun-18 12:06N 31°50' W 064°34'0 0.0 25.5
2017-Jun-18 12:02N 31°50' W 064°34'110.1 25.5
2017-Jun-18 11:55N 31°50' W 064°35'4 0.7 25.5
2017-Jun-18 06:57N 31°46' W 064°35'1 0.1 25.7
2017-Jun-18 00:50N 31°46' W 064°35'1 0.6 26.0
2017-Jun-17 23:51N 31°45' W 064°35'115.3 25.9
2017-Jun-17 23:49N 31°45' W 064°35'1 0.7 26.0
2017-Jun-17 21:59N 31°44' W 064°35'1 4.4 26.1
2017-Jun-17 21:52N 31°44' W 064°35'1 0.4 26.2
2017-Jun-17 20:10N 31°43' W 064°35'1 0.2 26.4
2017-Jun-17 15:55N 31°43' W 064°35'0 0.0 26.2
2017-Jun-17 15:12N 31°43' W 064°35'1 6.8 26.1
2017-Jun-17 15:05N 31°43' W 064°35'123.6 26.1
2017-Jun-17 15:03N 31°43' W 064°35'1 0.3 26.1
2017-Jun-17 10:59N 31°42' W 064°37'2 0.5 25.7
2017-Jun-17 07:11N 31°41' W 064°38'218.7 25.9
2017-Jun-17 07:05N 31°39' W 064°38'0 0.0 25.9
2017-Jun-17 02:48N 31°39' W 064°38'0 0.0 26.3
2017-Jun-17 02:45N 31°39' W 064°38'1 0.6 26.3
2017-Jun-17 01:46N 31°40' W 064°38'1 0.7 26.5
2017-Jun-17 01:01N 31°40' W 064°37'0 0.0 26.7
2017-Jun-16 23:52N 31°40' W 064°37'0 0.0 27.2
2017-Jun-16 23:47N 31°40' W 064°37'1 0.8 27.2
2017-Jun-16 22:05N 31°41' W 064°38'111.8 28.2
2017-Jun-16 22:01N 31°41' W 064°38'1 0.3 28.2
2017-Jun-16 18:49N 31°41' W 064°40'0 0.0 28.8
2017-Jun-16 18:45N 31°41' W 064°40'2 0.5 28.8
2017-Jun-16 13:51N 31°43' W 064°42'0 0.0
2017-Jun-16 13:49N 31°43' W 064°42'1 1.2 25.7
2017-Jun-16 12:50N 31°43' W 064°43'1 0.6 25.5
2017-Jun-16 10:49N 31°43' W 064°44'1 1.1 25.4
2017-Jun-16 09:52N 31°43' W 064°46'1 9.5 25.4
2017-Jun-16 09:47N 31°43' W 064°46'0 0.0 25.4
2017-Jun-16 09:06N 31°43' W 064°46'0 0.0 25.3
2017-Jun-16 09:00N 31°43' W 064°46'110.2 25.3
2017-Jun-16 08:57N 31°43' W 064°47'3 0.4 25.3
2017-Jun-16 03:04N 31°43' W 064°50'   25.4

Dump ship's entire track history